sensor_id;sensor_type;location;lat;lon;timestamp;pressure;altitude;pressure_sealevel;temperature;humidity
9695;BME280;4690;52.422;13.486;2023-04-05T00:04:27;102174.81;;;2.51;64.25
9695;BME280;4690;52.422;13.486;2023-04-05T00:06:53;102172.38;;;2.47;64.18
9695;BME280;4690;52.422;13.486;2023-04-05T00:09:20;102172.63;;;2.44;64.64
9695;BME280;4690;52.422;13.486;2023-04-05T00:11:47;102169.19;;;2.33;64.97
9695;BME280;4690;52.422;13.486;2023-04-05T00:14:13;102175.88;;;2.29;64.52
9695;BME280;4690;52.422;13.486;2023-04-05T00:16:39;102179.44;;;2.29;64.57
9695;BME280;4690;52.422;13.486;2023-04-05T00:19:05;102171.19;;;2.31;65.17
9695;BME280;4690;52.422;13.486;2023-04-05T00:21:31;102174.31;;;2.26;65.32
9695;BME280;4690;52.422;13.486;2023-04-05T00:23:58;102177.13;;;2.24;65.78
9695;BME280;4690;52.422;13.486;2023-04-05T00:26:25;102177.03;;;2.26;65.54
9695;BME280;4690;52.422;13.486;2023-04-05T00:28:51;102167.59;;;2.20;65.88
9695;BME280;4690;52.422;13.486;2023-04-05T00:31:18;102166.59;;;2.21;65.95
9695;BME280;4690;52.422;13.486;2023-04-05T00:33:44;102173.00;;;2.20;65.62
9695;BME280;4690;52.422;13.486;2023-04-05T00:36:19;102167.03;;;2.17;65.89
9695;BME280;4690;52.422;13.486;2023-04-05T00:38:47;102166.44;;;2.13;66.54
9695;BME280;4690;52.422;13.486;2023-04-05T00:41:13;102163.88;;;2.12;66.77
9695;BME280;4690;52.422;13.486;2023-04-05T00:43:40;102173.38;;;2.06;67.13
9695;BME280;4690;52.422;13.486;2023-04-05T00:46:07;102165.66;;;2.01;66.43
9695;BME280;4690;52.422;13.486;2023-04-05T00:48:34;102167.53;;;2.01;67.08
9695;BME280;4690;52.422;13.486;2023-04-05T00:51:01;102165.94;;;1.98;66.94
9695;BME280;4690;52.422;13.486;2023-04-05T00:53:27;102167.81;;;1.98;66.81
9695;BME280;4690;52.422;13.486;2023-04-05T00:55:54;102169.50;;;1.99;67.00
9695;BME280;4690;52.422;13.486;2023-04-05T00:58:21;102158.97;;;1.96;67.15
9695;BME280;4690;52.422;13.486;2023-04-05T01:01:20;102160.94;;;1.94;66.87
9695;BME280;4690;52.422;13.486;2023-04-05T01:03:58;102153.09;;;1.91;66.78
9695;BME280;4690;52.422;13.486;2023-04-05T01:12:05;102151.22;;;1.82;67.38
9695;BME280;4690;52.422;13.486;2023-04-05T01:14:41;102158.00;;;1.76;67.10
9695;BME280;4690;52.422;13.486;2023-04-05T01:17:07;102150.75;;;1.76;67.49
9695;BME280;4690;52.422;13.486;2023-04-05T01:19:34;102151.88;;;1.74;67.40
9695;BME280;4690;52.422;13.486;2023-04-05T01:25:15;102146.91;;;1.69;67.85
9695;BME280;4690;52.422;13.486;2023-04-05T01:34:24;102152.97;;;1.62;67.63
9695;BME280;4690;52.422;13.486;2023-04-05T01:37:06;102138.59;;;1.61;68.19
9695;BME280;4690;52.422;13.486;2023-04-05T01:39:35;102139.44;;;1.62;67.64
9695;BME280;4690;52.422;13.486;2023-04-05T01:42:02;102143.41;;;1.57;68.95
9695;BME280;4690;52.422;13.486;2023-04-05T01:44:28;102138.00;;;1.57;67.98
9695;BME280;4690;52.422;13.486;2023-04-05T01:46:55;102142.53;;;1.57;67.85
9695;BME280;4690;52.422;13.486;2023-04-05T01:49:22;102147.09;;;1.56;68.22
9695;BME280;4690;52.422;13.486;2023-04-05T01:51:49;102140.84;;;1.56;68.57
9695;BME280;4690;52.422;13.486;2023-04-05T01:54:14;102142.53;;;1.57;67.71
9695;BME280;4690;52.422;13.486;2023-04-05T01:56:40;102140.25;;;1.52;67.72
9695;BME280;4690;52.422;13.486;2023-04-05T01:59:06;102132.28;;;1.51;67.77
9695;BME280;4690;52.422;13.486;2023-04-05T02:01:32;102132.44;;;1.49;67.58
9695;BME280;4690;52.422;13.486;2023-04-05T02:03:58;102136.81;;;1.50;68.66
9695;BME280;4690;52.422;13.486;2023-04-05T02:06:23;102135.13;;;1.49;68.01
9695;BME280;4690;52.422;13.486;2023-04-05T02:08:49;102122.00;;;1.45;68.16
9695;BME280;4690;52.422;13.486;2023-04-05T02:11:15;102129.19;;;1.34;69.36
9695;BME280;4690;52.422;13.486;2023-04-05T02:13:41;102133.00;;;1.32;69.82
9695;BME280;4690;52.422;13.486;2023-04-05T02:16:07;102129.91;;;1.37;69.78
9695;BME280;4690;52.422;13.486;2023-04-05T02:18:32;102131.88;;;1.34;68.95
9695;BME280;4690;52.422;13.486;2023-04-05T02:21:04;102126.63;;;1.33;69.20
9695;BME280;4690;52.422;13.486;2023-04-05T02:23:31;102124.91;;;1.32;69.15
9695;BME280;4690;52.422;13.486;2023-04-05T02:25:57;102130.31;;;1.32;69.76
9695;BME280;4690;52.422;13.486;2023-04-05T02:28:23;102130.19;;;1.33;69.79
9695;BME280;4690;52.422;13.486;2023-04-05T02:30:49;102115.69;;;1.34;69.15
9695;BME280;4690;52.422;13.486;2023-04-05T02:33:15;102117.53;;;1.34;68.88
9695;BME280;4690;52.422;13.486;2023-04-05T02:35:40;102118.00;;;1.39;69.56
9695;BME280;4690;52.422;13.486;2023-04-05T02:38:07;102125.44;;;1.47;69.24
9695;BME280;4690;52.422;13.486;2023-04-05T02:40:34;102121.09;;;1.55;69.17
9695;BME280;4690;52.422;13.486;2023-04-05T02:43:00;102111.44;;;1.63;68.51
9695;BME280;4690;52.422;13.486;2023-04-05T02:45:26;102120.00;;;1.68;67.63
9695;BME280;4690;52.422;13.486;2023-04-05T02:47:53;102107.06;;;1.71;67.86
9695;BME280;4690;52.422;13.486;2023-04-05T02:50:19;102110.03;;;1.68;67.77
9695;BME280;4690;52.422;13.486;2023-04-05T02:52:46;102112.34;;;1.73;68.20
9695;BME280;4690;52.422;13.486;2023-04-05T02:55:14;102107.66;;;1.75;68.65
9695;BME280;4690;52.422;13.486;2023-04-05T02:57:42;102115.06;;;1.73;68.96
9695;BME280;4690;52.422;13.486;2023-04-05T03:00:09;102107.66;;;1.75;68.57
9695;BME280;4690;52.422;13.486;2023-04-05T03:02:37;102111.53;;;1.82;68.99
9695;BME280;4690;52.422;13.486;2023-04-05T03:05:04;102104.88;;;1.86;68.78
9695;BME280;4690;52.422;13.486;2023-04-05T03:07:30;102110.13;;;1.88;68.80
9695;BME280;4690;52.422;13.486;2023-04-05T03:09:57;102100.31;;;1.87;68.29
9695;BME280;4690;52.422;13.486;2023-04-05T03:12:24;102100.16;;;1.88;67.99
9695;BME280;4690;52.422;13.486;2023-04-05T03:14:50;102090.66;;;1.94;68.38
9695;BME280;4690;52.422;13.486;2023-04-05T03:17:16;102095.25;;;2.03;67.48
9695;BME280;4690;52.422;13.486;2023-04-05T03:19:41;102093.97;;;2.07;67.32
9695;BME280;4690;52.422;13.486;2023-04-05T03:22:07;102093.69;;;2.00;67.55
9695;BME280;4690;52.422;13.486;2023-04-05T03:24:33;102088.56;;;1.97;68.21
9695;BME280;4690;52.422;13.486;2023-04-05T03:27:02;102089.28;;;2.09;67.40
9695;BME280;4690;52.422;13.486;2023-04-05T03:29:30;102081.19;;;2.19;67.10
9695;BME280;4690;52.422;13.486;2023-04-05T03:31:57;102080.38;;;2.28;67.65
9695;BME280;4690;52.422;13.486;2023-04-05T03:34:24;102087.63;;;2.28;67.57
9695;BME280;4690;52.422;13.486;2023-04-05T03:36:54;102083.50;;;2.33;66.59
9695;BME280;4690;52.422;13.486;2023-04-05T03:39:20;102080.78;;;2.33;66.77
9695;BME280;4690;52.422;13.486;2023-04-05T03:41:46;102084.22;;;2.35;67.52
9695;BME280;4690;52.422;13.486;2023-04-05T03:44:11;102079.53;;;2.37;67.30
9695;BME280;4690;52.422;13.486;2023-04-05T03:46:37;102079.53;;;2.37;67.17
9695;BME280;4690;52.422;13.486;2023-04-05T03:49:04;102076.81;;;2.37;66.96
9695;BME280;4690;52.422;13.486;2023-04-05T03:51:30;102088.22;;;2.41;67.03
9695;BME280;4690;52.422;13.486;2023-04-05T03:53:57;102076.25;;;2.43;66.09
9695;BME280;4690;52.422;13.486;2023-04-05T03:56:22;102074.56;;;2.42;66.18
9695;BME280;4690;52.422;13.486;2023-04-05T03:58:51;102077.66;;;2.47;66.76
9695;BME280;4690;52.422;13.486;2023-04-05T04:01:17;102075.53;;;2.41;66.53
9695;BME280;4690;52.422;13.486;2023-04-05T04:03:43;102076.25;;;2.43;66.34
9695;BME280;4690;52.422;13.486;2023-04-05T04:06:09;102074.25;;;2.26;66.18
9695;BME280;4690;52.422;13.486;2023-04-05T04:08:35;102078.09;;;2.23;66.57
9695;BME280;4690;52.422;13.486;2023-04-05T04:11:02;102078.81;;;2.35;66.62
9695;BME280;4690;52.422;13.486;2023-04-05T04:13:28;102067.13;;;2.44;66.00
9695;BME280;4690;52.422;13.486;2023-04-05T04:15:53;102079.97;;;2.42;66.25
9695;BME280;4690;52.422;13.486;2023-04-05T04:18:19;102074.72;;;2.51;66.41
9695;BME280;4690;52.422;13.486;2023-04-05T04:20:45;102070.72;;;2.55;66.18
9695;BME280;4690;52.422;13.486;2023-04-05T04:23:12;102064.59;;;2.53;66.68
9695;BME280;4690;52.422;13.486;2023-04-05T04:25:39;102064.59;;;2.53;66.86
9695;BME280;4690;52.422;13.486;2023-04-05T04:28:06;102072.28;;;2.57;66.63
9695;BME280;4690;52.422;13.486;2023-04-05T04:30:32;102070.59;;;2.56;66.45
9695;BME280;4690;52.422;13.486;2023-04-05T04:33:00;102076.41;;;2.52;66.89
9695;BME280;4690;52.422;13.486;2023-04-05T04:35:31;102078.97;;;2.53;67.30
9695;BME280;4690;52.422;13.486;2023-04-05T04:38:01;102077.97;;;2.54;67.38
9695;BME280;4690;52.422;13.486;2023-04-05T04:40:35;102076.56;;;2.60;67.06
9695;BME280;4690;52.422;13.486;2023-04-05T04:43:08;102075.81;;;2.67;66.72
9695;BME280;4690;52.422;13.486;2023-04-05T04:45:48;102076.56;;;2.69;66.86
9695;BME280;4690;52.422;13.486;2023-04-05T04:48:16;102075.28;;;2.74;66.70
9695;BME280;4690;52.422;13.486;2023-04-05T04:50:43;102075.13;;;2.75;67.50
9695;BME280;4690;52.422;13.486;2023-04-05T04:53:10;102068.59;;;2.68;67.15
9695;BME280;4690;52.422;13.486;2023-04-05T04:55:39;102073.13;;;2.77;67.55
9695;BME280;4690;52.422;13.486;2023-04-05T04:58:07;102076.00;;;2.85;67.21
9695;BME280;4690;52.422;13.486;2023-04-05T05:00:41;102072.81;;;2.90;67.32
9695;BME280;4690;52.422;13.486;2023-04-05T05:03:09;102066.88;;;2.96;67.34
9695;BME280;4690;52.422;13.486;2023-04-05T05:05:45;102069.72;;;3.04;66.94
9695;BME280;4690;52.422;13.486;2023-04-05T05:08:12;102078.81;;;3.13;66.40
9695;BME280;4690;52.422;13.486;2023-04-05T05:10:38;102071.66;;;3.22;66.61
9695;BME280;4690;52.422;13.486;2023-04-05T05:13:04;102072.47;;;3.32;65.49
9695;BME280;4690;52.422;13.486;2023-04-05T05:15:30;102084.75;;;3.36;64.59
9695;BME280;4690;52.422;13.486;2023-04-05T05:17:56;102077.28;;;3.48;64.38
9695;BME280;4690;52.422;13.486;2023-04-05T05:20:24;102076.41;;;3.57;63.65
9695;BME280;4690;52.422;13.486;2023-04-05T05:22:55;102067.41;;;3.66;63.69
9695;BME280;4690;52.422;13.486;2023-04-05T05:25:22;102061.38;;;3.72;62.88
9695;BME280;4690;52.422;13.486;2023-04-05T05:27:49;102064.72;;;3.84;63.16
9695;BME280;4690;52.422;13.486;2023-04-05T05:30:16;102072.81;;;3.94;62.54
9695;BME280;4690;52.422;13.486;2023-04-05T05:32:42;102064.34;;;4.07;62.29
9695;BME280;4690;52.422;13.486;2023-04-05T05:35:08;102066.44;;;4.13;62.13
9695;BME280;4690;52.422;13.486;2023-04-05T05:37:34;102075.38;;;4.23;61.96
9695;BME280;4690;52.422;13.486;2023-04-05T05:40:01;102077.31;;;4.31;61.96
9695;BME280;4690;52.422;13.486;2023-04-05T05:42:28;102078.28;;;4.39;61.85
9695;BME280;4690;52.422;13.486;2023-04-05T05:45:00;102056.47;;;4.49;61.12
9695;BME280;4690;52.422;13.486;2023-04-05T05:47:26;102059.28;;;4.57;60.43
9695;BME280;4690;52.422;13.486;2023-04-05T05:49:51;102063.63;;;4.68;60.68
9695;BME280;4690;52.422;13.486;2023-04-05T05:52:17;102064.69;;;4.75;60.05
9695;BME280;4690;52.422;13.486;2023-04-05T05:54:43;102063.91;;;4.83;60.11
9695;BME280;4690;52.422;13.486;2023-04-05T05:57:09;102064.84;;;4.91;59.03
9695;BME280;4690;52.422;13.486;2023-04-05T05:59:34;102061.72;;;5.04;59.46
9695;BME280;4690;52.422;13.486;2023-04-05T06:02:03;102070.63;;;5.14;59.18
9695;BME280;4690;52.422;13.486;2023-04-05T06:04:29;102050.66;;;5.24;58.83
9695;BME280;4690;52.422;13.486;2023-04-05T06:06:56;102053.41;;;5.32;58.07
9695;BME280;4690;52.422;13.486;2023-04-05T06:09:21;102051.75;;;5.39;56.57
9695;BME280;4690;52.422;13.486;2023-04-05T06:11:53;102043.22;;;5.34;56.43
9695;BME280;4690;52.422;13.486;2023-04-05T06:14:19;102042.31;;;5.51;56.30
9695;BME280;4690;52.422;13.486;2023-04-05T06:16:45;102040.34;;;5.61;56.12
9695;BME280;4690;52.422;13.486;2023-04-05T06:19:11;102032.88;;;5.98;54.98
9695;BME280;4690;52.422;13.486;2023-04-05T06:21:36;102040.63;;;6.35;54.87
9695;BME280;4690;52.422;13.486;2023-04-05T06:24:02;102040.13;;;6.64;53.12
9695;BME280;4690;52.422;13.486;2023-04-05T06:26:28;102053.41;;;6.76;52.97
9695;BME280;4690;52.422;13.486;2023-04-05T06:28:55;102070.97;;;6.57;53.48
9695;BME280;4690;52.422;13.486;2023-04-05T06:31:35;102053.75;;;6.64;52.01
9695;BME280;4690;52.422;13.486;2023-04-05T06:34:01;102056.00;;;6.85;52.13
9695;BME280;4690;52.422;13.486;2023-04-05T06:36:30;102053.78;;;6.97;51.75
9695;BME280;4690;52.422;13.486;2023-04-05T06:38:59;102050.53;;;6.77;52.20
9695;BME280;4690;52.422;13.486;2023-04-05T06:41:25;102053.78;;;6.89;53.21
9695;BME280;4690;52.422;13.486;2023-04-05T06:43:51;102057.19;;;6.99;52.13
9695;BME280;4690;52.422;13.486;2023-04-05T06:46:17;102055.13;;;7.17;51.88
9695;BME280;4690;52.422;13.486;2023-04-05T06:48:43;102062.41;;;7.41;51.67
9695;BME280;4690;52.422;13.486;2023-04-05T06:51:09;102054.41;;;7.40;51.46
9695;BME280;4690;52.422;13.486;2023-04-05T06:53:35;102053.50;;;7.64;51.32
9695;BME280;4690;52.422;13.486;2023-04-05T06:56:01;102057.41;;;7.61;50.35
9695;BME280;4690;52.422;13.486;2023-04-05T06:58:27;102057.34;;;7.14;51.60
9695;BME280;4690;52.422;13.486;2023-04-05T07:00:53;102057.84;;;7.09;52.33
9695;BME280;4690;52.422;13.486;2023-04-05T07:03:19;102057.00;;;7.17;52.14
9695;BME280;4690;52.422;13.486;2023-04-05T07:05:59;102054.47;;;6.83;53.05
9695;BME280;4690;52.422;13.486;2023-04-05T07:08:28;102055.66;;;7.21;53.62
9695;BME280;4690;52.422;13.486;2023-04-05T07:10:54;102057.25;;;7.63;52.67
9695;BME280;4690;52.422;13.486;2023-04-05T07:13:22;102055.28;;;7.88;52.26
9695;BME280;4690;52.422;13.486;2023-04-05T07:15:50;102051.94;;;8.09;51.46
9695;BME280;4690;52.422;13.486;2023-04-05T07:18:16;102041.47;;;7.90;52.30
9695;BME280;4690;52.422;13.486;2023-04-05T07:20:47;102042.22;;;8.06;51.62
9695;BME280;4690;52.422;13.486;2023-04-05T07:23:13;102042.09;;;8.39;50.60
9695;BME280;4690;52.422;13.486;2023-04-05T07:25:40;102034.81;;;8.55;49.38
9695;BME280;4690;52.422;13.486;2023-04-05T07:28:06;102034.44;;;8.81;49.94
9695;BME280;4690;52.422;13.486;2023-04-05T07:30:31;102039.00;;;9.03;49.21
9695;BME280;4690;52.422;13.486;2023-04-05T07:32:57;102034.75;;;9.24;48.48
9695;BME280;4690;52.422;13.486;2023-04-05T07:35:24;102026.41;;;9.17;48.04
9695;BME280;4690;52.422;13.486;2023-04-05T07:37:50;102024.66;;;9.39;48.18
9695;BME280;4690;52.422;13.486;2023-04-05T07:40:17;102025.41;;;9.62;47.19
9695;BME280;4690;52.422;13.486;2023-04-05T07:42:43;102026.16;;;9.86;46.41
9695;BME280;4690;52.422;13.486;2023-04-05T07:45:09;102032.44;;;10.01;46.95
9695;BME280;4690;52.422;13.486;2023-04-05T07:47:35;102040.78;;;9.93;46.95
9695;BME280;4690;52.422;13.486;2023-04-05T07:50:01;102041.50;;;10.02;47.78
9695;BME280;4690;52.422;13.486;2023-04-05T07:52:27;102034.78;;;10.19;47.41
9695;BME280;4690;52.422;13.486;2023-04-05T07:54:54;102033.88;;;10.70;45.88
9695;BME280;4690;52.422;13.486;2023-04-05T07:57:20;102051.63;;;10.74;45.17
9695;BME280;4690;52.422;13.486;2023-04-05T07:59:48;102047.63;;;10.55;46.49
9695;BME280;4690;52.422;13.486;2023-04-05T08:02:15;102049.94;;;10.73;45.96
9695;BME280;4690;52.422;13.486;2023-04-05T08:04:41;102046.13;;;10.52;45.85
9695;BME280;4690;52.422;13.486;2023-04-05T08:07:08;102044.75;;;10.05;47.28
9695;BME280;4690;52.422;13.486;2023-04-05T08:09:35;102057.97;;;9.72;47.61
9695;BME280;4690;52.422;13.486;2023-04-05T08:12:01;102044.38;;;10.45;47.21
9695;BME280;4690;52.422;13.486;2023-04-05T08:14:28;102039.41;;;11.54;43.70
9695;BME280;4690;52.422;13.486;2023-04-05T08:16:53;102035.81;;;12.37;42.69
9695;BME280;4690;52.422;13.486;2023-04-05T08:19:19;102031.69;;;12.06;41.59
9695;BME280;4690;52.422;13.486;2023-04-05T08:21:45;102032.31;;;13.16;40.18
9695;BME280;4690;52.422;13.486;2023-04-05T08:24:11;102033.44;;;14.00;38.17
9695;BME280;4690;52.422;13.486;2023-04-05T08:26:36;102033.13;;;13.63;38.13
9695;BME280;4690;52.422;13.486;2023-04-05T08:29:02;102035.13;;;14.01;38.14
9695;BME280;4690;52.422;13.486;2023-04-05T08:31:28;102035.56;;;15.06;36.19
9695;BME280;4690;52.422;13.486;2023-04-05T08:33:54;102031.44;;;15.40;35.05
9695;BME280;4690;52.422;13.486;2023-04-05T08:36:20;102028.53;;;14.85;33.40
9695;BME280;4690;52.422;13.486;2023-04-05T08:38:46;102030.47;;;14.78;35.03
9695;BME280;4690;52.422;13.486;2023-04-05T08:41:20;102031.50;;;15.96;33.37
9695;BME280;4690;52.422;13.486;2023-04-05T08:44:00;102021.84;;;16.65;31.22
9695;BME280;4690;52.422;13.486;2023-04-05T08:46:32;102022.34;;;16.74;31.25
9695;BME280;4690;52.422;13.486;2023-04-05T08:49:04;102021.63;;;16.36;30.75
9695;BME280;4690;52.422;13.486;2023-04-05T08:51:30;102030.44;;;15.35;31.64
9695;BME280;4690;52.422;13.486;2023-04-05T08:53:59;102021.91;;;15.36;32.29
9695;BME280;4690;52.422;13.486;2023-04-05T08:56:31;102020.59;;;16.01;33.17
9695;BME280;4690;52.422;13.486;2023-04-05T08:59:09;102029.44;;;16.40;32.42
9695;BME280;4690;52.422;13.486;2023-04-05T09:01:42;102031.97;;;16.11;30.67
9695;BME280;4690;52.422;13.486;2023-04-05T09:04:19;102029.13;;;14.55;32.45
9695;BME280;4690;52.422;13.486;2023-04-05T09:06:48;102030.59;;;14.20;34.66
9695;BME280;4690;52.422;13.486;2023-04-05T09:09:15;102034.84;;;14.61;34.22
9695;BME280;4690;52.422;13.486;2023-04-05T09:11:43;102027.84;;;14.20;32.86
9695;BME280;4690;52.422;13.486;2023-04-05T09:14:09;102032.41;;;13.87;33.23
9695;BME280;4690;52.422;13.486;2023-04-05T09:16:41;102028.72;;;13.35;34.32
9695;BME280;4690;52.422;13.486;2023-04-05T09:19:08;102025.13;;;13.08;34.90
9695;BME280;4690;52.422;13.486;2023-04-05T09:27:17;102021.25;;;14.21;33.83
9695;BME280;4690;52.422;13.486;2023-04-05T09:29:48;102016.63;;;15.35;31.75
9695;BME280;4690;52.422;13.486;2023-04-05T09:32:16;102014.44;;;15.99;31.12
9695;BME280;4690;52.422;13.486;2023-04-05T09:34:47;102014.84;;;16.32;30.09
9695;BME280;4690;52.422;13.486;2023-04-05T09:37:20;102013.50;;;16.53;30.19
9695;BME280;4690;52.422;13.486;2023-04-05T09:39:48;102014.28;;;15.94;31.24
9695;BME280;4690;52.422;13.486;2023-04-05T09:42:17;102017.16;;;16.35;30.84
9695;BME280;4690;52.422;13.486;2023-04-05T09:44:58;102017.63;;;16.74;29.99
9695;BME280;4690;52.422;13.486;2023-04-05T09:47:32;102016.66;;;17.34;29.50
9695;BME280;4690;52.422;13.486;2023-04-05T09:50:19;102006.91;;;18.19;28.04
9695;BME280;4690;52.422;13.486;2023-04-05T09:52:45;102013.22;;;18.03;26.80
9695;BME280;4690;52.422;13.486;2023-04-05T09:55:12;102012.00;;;18.10;27.29
9695;BME280;4690;52.422;13.486;2023-04-05T09:57:40;102013.84;;;18.05;27.71
9695;BME280;4690;52.422;13.486;2023-04-05T10:00:19;102004.75;;;17.22;28.17
9695;BME280;4690;52.422;13.486;2023-04-05T10:02:45;102011.09;;;16.87;29.19
9695;BME280;4690;52.422;13.486;2023-04-05T10:05:12;102006.41;;;16.27;29.97
9695;BME280;4690;52.422;13.486;2023-04-05T10:07:41;102004.88;;;16.31;29.65
9695;BME280;4690;52.422;13.486;2023-04-05T10:10:09;101999.19;;;16.26;29.85
9695;BME280;4690;52.422;13.486;2023-04-05T10:12:39;102003.84;;;15.59;30.61
9695;BME280;4690;52.422;13.486;2023-04-05T10:15:07;102000.38;;;13.93;33.05
9695;BME280;4690;52.422;13.486;2023-04-05T10:17:56;102006.69;;;13.29;34.81
9695;BME280;4690;52.422;13.486;2023-04-05T10:20:29;102005.84;;;13.41;34.19
9695;BME280;4690;52.422;13.486;2023-04-05T10:23:14;102012.00;;;12.70;34.71
9695;BME280;4690;52.422;13.486;2023-04-05T10:31:24;102006.06;;;12.80;35.99
9695;BME280;4690;52.422;13.486;2023-04-05T10:34:25;102003.94;;;12.89;35.94
9695;BME280;4690;52.422;13.486;2023-04-05T10:37:01;101996.31;;;13.24;35.72
9695;BME280;4690;52.422;13.486;2023-04-05T10:39:44;101985.47;;;14.14;33.79
9695;BME280;4690;52.422;13.486;2023-04-05T10:42:19;101992.81;;;15.34;33.11
9695;BME280;4690;52.422;13.486;2023-04-05T10:44:50;101983.75;;;15.70;28.82
9695;BME280;4690;52.422;13.486;2023-04-05T10:47:20;101973.44;;;15.40;29.07
9695;BME280;4690;52.422;13.486;2023-04-05T10:49:52;101980.28;;;15.38;29.87
9695;BME280;4690;52.422;13.486;2023-04-05T10:52:19;101979.69;;;15.11;30.82
9695;BME280;4690;52.422;13.486;2023-04-05T10:54:48;101983.06;;;14.88;30.60
9695;BME280;4690;52.422;13.486;2023-04-05T10:57:17;101974.78;;;14.63;31.36
9695;BME280;4690;52.422;13.486;2023-04-05T10:59:45;101982.75;;;13.49;32.59
9695;BME280;4690;52.422;13.486;2023-04-05T11:02:15;101984.69;;;12.69;34.75
9695;BME280;4690;52.422;13.486;2023-04-05T11:04:41;101986.50;;;12.22;34.93
9695;BME280;4690;52.422;13.486;2023-04-05T11:07:18;101991.94;;;12.02;37.07
9695;BME280;4690;52.422;13.486;2023-04-05T11:10:17;101981.50;;;12.45;36.04
9695;BME280;4690;52.422;13.486;2023-04-05T11:18:20;101979.41;;;11.51;38.44
9695;BME280;4690;52.422;13.486;2023-04-05T11:20:51;101985.78;;;11.52;39.65
9695;BME280;4690;52.422;13.486;2023-04-05T11:23:19;101987.78;;;11.36;39.78
9695;BME280;4690;52.422;13.486;2023-04-05T11:25:53;101988.56;;;10.74;39.69
9695;BME280;4690;52.422;13.486;2023-04-05T11:28:28;101996.19;;;9.99;41.62
9695;BME280;4690;52.422;13.486;2023-04-05T11:30:55;101990.47;;;10.52;42.80
9695;BME280;4690;52.422;13.486;2023-04-05T11:36:12;102001.91;;;11.05;42.92
9695;BME280;4690;52.422;13.486;2023-04-05T11:38:42;101988.50;;;11.86;41.08
9695;BME280;4690;52.422;13.486;2023-04-05T11:41:16;101991.22;;;12.54;40.77
9695;BME280;4690;52.422;13.486;2023-04-05T11:43:46;101985.28;;;12.31;38.56
9695;BME280;4690;52.422;13.486;2023-04-05T11:46:15;101984.19;;;12.25;38.55
9695;BME280;4690;52.422;13.486;2023-04-05T11:48:41;101982.00;;;12.07;38.25
9695;BME280;4690;52.422;13.486;2023-04-05T11:51:09;101982.88;;;12.08;38.25
9695;BME280;4690;52.422;13.486;2023-04-05T11:53:36;101981.72;;;12.70;37.71
9695;BME280;4690;52.422;13.486;2023-04-05T11:56:09;101978.75;;;12.92;38.16
9695;BME280;4690;52.422;13.486;2023-04-05T11:58:38;101973.47;;;13.30;35.35
9695;BME280;4690;52.422;13.486;2023-04-05T12:01:05;101976.78;;;13.59;34.45
9695;BME280;4690;52.422;13.486;2023-04-05T12:03:33;101974.38;;;13.76;35.40
9695;BME280;4690;52.422;13.486;2023-04-05T12:06:02;101967.75;;;13.90;34.21
9695;BME280;4690;52.422;13.486;2023-04-05T12:08:43;101974.28;;;13.24;34.89
9695;BME280;4690;52.422;13.486;2023-04-05T12:11:26;101970.47;;;13.32;34.98
9695;BME280;4690;52.422;13.486;2023-04-05T12:14:00;101969.47;;;12.73;36.48
9695;BME280;4690;52.422;13.486;2023-04-05T12:16:27;101977.72;;;12.73;36.58
9695;BME280;4690;52.422;13.486;2023-04-05T12:18:57;101973.03;;;13.00;37.11
9695;BME280;4690;52.422;13.486;2023-04-05T12:21:25;101967.97;;;12.84;37.92
9695;BME280;4690;52.422;13.486;2023-04-05T12:23:51;101971.34;;;12.72;38.34
9695;BME280;4690;52.422;13.486;2023-04-05T12:26:18;101962.94;;;11.51;39.04
9695;BME280;4690;52.422;13.486;2023-04-05T12:28:57;101976.63;;;11.38;40.77
9695;BME280;4690;52.422;13.486;2023-04-05T12:31:42;101959.28;;;11.79;39.88
9695;BME280;4690;52.422;13.486;2023-04-05T12:34:10;101962.94;;;11.93;39.70
9695;BME280;4690;52.422;13.486;2023-04-05T12:36:37;101962.78;;;12.07;42.68
9695;BME280;4690;52.422;13.486;2023-04-05T12:39:09;101963.81;;;11.52;43.69
9695;BME280;4690;52.422;13.486;2023-04-05T12:41:35;101952.53;;;10.77;44.95
9695;BME280;4690;52.422;13.486;2023-04-05T12:44:26;101958.06;;;10.34;48.06
9695;BME280;4690;52.422;13.486;2023-04-05T12:47:01;101963.19;;;10.44;47.88
9695;BME280;4690;52.422;13.486;2023-04-05T12:49:28;101958.19;;;10.47;48.62
9695;BME280;4690;52.422;13.486;2023-04-05T12:51:59;101953.78;;;10.53;46.76
9695;BME280;4690;52.422;13.486;2023-04-05T12:54:26;101956.78;;;10.80;46.95
9695;BME280;4690;52.422;13.486;2023-04-05T12:56:53;101952.19;;;10.87;45.31
9695;BME280;4690;52.422;13.486;2023-04-05T12:59:20;101951.78;;;10.62;43.66
9695;BME280;4690;52.422;13.486;2023-04-05T13:01:46;101953.34;;;10.49;44.46
9695;BME280;4690;52.422;13.486;2023-04-05T13:04:12;101955.16;;;10.64;44.39
9695;BME280;4690;52.422;13.486;2023-04-05T13:06:38;101946.16;;;10.27;44.82
9695;BME280;4690;52.422;13.486;2023-04-05T13:09:03;101952.00;;;10.02;43.93
9695;BME280;4690;52.422;13.486;2023-04-05T13:11:29;101940.97;;;10.32;43.74
9695;BME280;4690;52.422;13.486;2023-04-05T13:13:56;101942.09;;;10.01;44.14
9695;BME280;4690;52.422;13.486;2023-04-05T13:16:22;101945.63;;;10.17;44.91
9695;BME280;4690;52.422;13.486;2023-04-05T13:18:47;101941.66;;;10.62;43.56
9695;BME280;4690;52.422;13.486;2023-04-05T13:21:13;101933.34;;;10.77;42.09
9695;BME280;4690;52.422;13.486;2023-04-05T13:23:40;101936.38;;;10.89;41.14
9695;BME280;4690;52.422;13.486;2023-04-05T13:26:07;101932.53;;;11.11;40.60
9695;BME280;4690;52.422;13.486;2023-04-05T13:28:33;101942.22;;;11.49;40.91
9695;BME280;4690;52.422;13.486;2023-04-05T13:31:01;101933.22;;;11.55;41.46
9695;BME280;4690;52.422;13.486;2023-04-05T13:33:27;101928.75;;;11.54;40.50
9695;BME280;4690;52.422;13.486;2023-04-05T13:35:52;101919.88;;;11.52;40.00
9695;BME280;4690;52.422;13.486;2023-04-05T13:38:18;101925.75;;;11.49;41.36
9695;BME280;4690;52.422;13.486;2023-04-05T13:40:46;101924.28;;;11.11;40.98
9695;BME280;4690;52.422;13.486;2023-04-05T13:43:12;101915.47;;;11.57;40.94
9695;BME280;4690;52.422;13.486;2023-04-05T13:45:38;101913.31;;;12.01;39.22
9695;BME280;4690;52.422;13.486;2023-04-05T13:48:04;101915.09;;;12.42;37.92
9695;BME280;4690;52.422;13.486;2023-04-05T13:50:29;101910.19;;;12.84;36.68
9695;BME280;4690;52.422;13.486;2023-04-05T13:52:55;101908.66;;;13.14;35.37